sensor_id;sensor_type;location;lat;lon;timestamp;P1;durP1;ratioP1;P2;durP2;ratioP2
69305;SDS011;56427;51.580;4.656;2023-04-19T00:01:08;16.80;;;10.77;;
69305;SDS011;56427;51.580;4.656;2023-04-19T00:03:35;17.25;;;11.57;;
69305;SDS011;56427;51.580;4.656;2023-04-19T00:06:00;18.65;;;11.25;;
69305;SDS011;56427;51.580;4.656;2023-04-19T00:08:26;20.47;;;11.17;;
69305;SDS011;56427;51.580;4.656;2023-04-19T00:10:51;14.90;;;10.98;;
69305;SDS011;56427;51.580;4.656;2023-04-19T00:13:17;17.47;;;12.00;;
69305;SDS011;56427;51.580;4.656;2023-04-19T00:15:44;18.90;;;12.23;;
69305;SDS011;56427;51.580;4.656;2023-04-19T00:18:13;17.08;;;11.50;;
69305;SDS011;56427;51.580;4.656;2023-04-19T00:20:41;15.45;;;11.02;;
69305;SDS011;56427;51.580;4.656;2023-04-19T00:23:16;15.07;;;10.90;;
69305;SDS011;56427;51.580;4.656;2023-04-19T00:25:57;19.02;;;12.15;;
69305;SDS011;56427;51.580;4.656;2023-04-19T00:28:43;17.58;;;11.82;;
69305;SDS011;56427;51.580;4.656;2023-04-19T00:31:19;17.95;;;11.93;;
69305;SDS011;56427;51.580;4.656;2023-04-19T00:34:01;20.30;;;12.05;;
69305;SDS011;56427;51.580;4.656;2023-04-19T00:36:30;16.23;;;10.73;;
69305;SDS011;56427;51.580;4.656;2023-04-19T00:39:18;18.48;;;12.55;;
69305;SDS011;56427;51.580;4.656;2023-04-19T00:41:52;17.48;;;11.75;;
69305;SDS011;56427;51.580;4.656;2023-04-19T00:44:25;19.45;;;12.25;;
69305;SDS011;56427;51.580;4.656;2023-04-19T00:46:56;18.20;;;11.95;;
69305;SDS011;56427;51.580;4.656;2023-04-19T00:49:53;20.07;;;12.47;;
69305;SDS011;56427;51.580;4.656;2023-04-19T01:03:06;19.05;;;11.73;;
69305;SDS011;56427;51.580;4.656;2023-04-19T01:05:43;19.07;;;12.70;;
69305;SDS011;56427;51.580;4.656;2023-04-19T01:08:48;19.20;;;12.10;;
69305;SDS011;56427;51.580;4.656;2023-04-19T01:11:18;18.65;;;12.07;;
69305;SDS011;56427;51.580;4.656;2023-04-19T01:14:10;19.40;;;12.68;;
69305;SDS011;56427;51.580;4.656;2023-04-19T01:17:04;19.73;;;12.68;;
69305;SDS011;56427;51.580;4.656;2023-04-19T01:20:05;19.40;;;11.97;;
69305;SDS011;56427;51.580;4.656;2023-04-19T01:22:53;19.17;;;12.38;;
69305;SDS011;56427;51.580;4.656;2023-04-19T01:28:57;15.48;;;11.63;;
69305;SDS011;56427;51.580;4.656;2023-04-19T01:32:06;18.98;;;11.98;;
69305;SDS011;56427;51.580;4.656;2023-04-19T01:35:11;19.13;;;11.53;;
69305;SDS011;56427;51.580;4.656;2023-04-19T01:41:25;19.92;;;11.80;;
69305;SDS011;56427;51.580;4.656;2023-04-19T01:43:58;15.65;;;10.45;;
69305;SDS011;56427;51.580;4.656;2023-04-19T01:46:55;19.42;;;12.35;;
69305;SDS011;56427;51.580;4.656;2023-04-19T01:49:28;18.27;;;11.67;;
69305;SDS011;56427;51.580;4.656;2023-04-19T01:52:21;18.83;;;12.75;;
69305;SDS011;56427;51.580;4.656;2023-04-19T01:54:52;19.13;;;12.35;;
69305;SDS011;56427;51.580;4.656;2023-04-19T01:57:20;18.87;;;11.97;;
69305;SDS011;56427;51.580;4.656;2023-04-19T02:00:14;20.63;;;12.20;;
69305;SDS011;56427;51.580;4.656;2023-04-19T02:02:57;19.77;;;12.05;;
69305;SDS011;56427;51.580;4.656;2023-04-19T02:08:47;20.10;;;12.43;;
69305;SDS011;56427;51.580;4.656;2023-04-19T02:11:25;20.45;;;12.57;;
69305;SDS011;56427;51.580;4.656;2023-04-19T02:13:57;19.75;;;12.45;;
69305;SDS011;56427;51.580;4.656;2023-04-19T02:16:49;17.80;;;12.00;;
69305;SDS011;56427;51.580;4.656;2023-04-19T02:21:58;19.42;;;11.93;;
69305;SDS011;56427;51.580;4.656;2023-04-19T02:24:23;19.25;;;12.23;;
69305;SDS011;56427;51.580;4.656;2023-04-19T02:26:49;18.98;;;11.18;;
69305;SDS011;56427;51.580;4.656;2023-04-19T02:29:20;19.83;;;11.82;;
69305;SDS011;56427;51.580;4.656;2023-04-19T02:31:49;21.70;;;11.45;;
69305;SDS011;56427;51.580;4.656;2023-04-19T02:34:17;18.23;;;12.57;;
69305;SDS011;56427;51.580;4.656;2023-04-19T02:36:47;19.60;;;12.47;;
69305;SDS011;56427;51.580;4.656;2023-04-19T02:39:26;16.92;;;10.15;;
69305;SDS011;56427;51.580;4.656;2023-04-19T02:41:57;21.40;;;13.32;;
69305;SDS011;56427;51.580;4.656;2023-04-19T02:44:33;20.00;;;12.32;;
69305;SDS011;56427;51.580;4.656;2023-04-19T02:47:41;17.75;;;11.82;;
69305;SDS011;56427;51.580;4.656;2023-04-19T02:50:10;20.23;;;13.10;;
69305;SDS011;56427;51.580;4.656;2023-04-19T02:52:40;19.50;;;12.25;;
69305;SDS011;56427;51.580;4.656;2023-04-19T02:55:21;21.63;;;12.57;;
69305;SDS011;56427;51.580;4.656;2023-04-19T02:57:58;21.05;;;13.20;;
69305;SDS011;56427;51.580;4.656;2023-04-19T03:03:33;18.97;;;12.13;;
69305;SDS011;56427;51.580;4.656;2023-04-19T03:06:09;19.95;;;13.45;;
69305;SDS011;56427;51.580;4.656;2023-04-19T03:08:39;21.05;;;12.93;;
69305;SDS011;56427;51.580;4.656;2023-04-19T03:11:20;18.15;;;11.68;;
69305;SDS011;56427;51.580;4.656;2023-04-19T03:13:57;26.63;;;12.32;;
69305;SDS011;56427;51.580;4.656;2023-04-19T03:16:33;22.70;;;11.93;;
69305;SDS011;56427;51.580;4.656;2023-04-19T03:19:07;21.23;;;11.95;;
69305;SDS011;56427;51.580;4.656;2023-04-19T03:21:35;20.23;;;12.43;;
69305;SDS011;56427;51.580;4.656;2023-04-19T03:24:06;19.00;;;12.75;;
69305;SDS011;56427;51.580;4.656;2023-04-19T03:26:46;18.35;;;12.13;;
69305;SDS011;56427;51.580;4.656;2023-04-19T03:29:17;20.43;;;11.63;;
69305;SDS011;56427;51.580;4.656;2023-04-19T03:31:43;20.23;;;13.38;;
69305;SDS011;56427;51.580;4.656;2023-04-19T03:34:21;16.10;;;10.98;;
69305;SDS011;56427;51.580;4.656;2023-04-19T03:36:54;17.23;;;11.43;;
69305;SDS011;56427;51.580;4.656;2023-04-19T03:39:22;20.65;;;12.52;;
69305;SDS011;56427;51.580;4.656;2023-04-19T03:42:01;19.48;;;11.98;;
69305;SDS011;56427;51.580;4.656;2023-04-19T03:44:35;18.00;;;9.77;;
69305;SDS011;56427;51.580;4.656;2023-04-19T03:47:11;20.17;;;11.65;;
69305;SDS011;56427;51.580;4.656;2023-04-19T03:49:48;17.55;;;10.45;;
69305;SDS011;56427;51.580;4.656;2023-04-19T03:52:41;16.67;;;10.20;;
69305;SDS011;56427;51.580;4.656;2023-04-19T03:55:12;17.67;;;9.93;;
69305;SDS011;56427;51.580;4.656;2023-04-19T03:57:44;16.80;;;10.88;;
69305;SDS011;56427;51.580;4.656;2023-04-19T04:00:15;15.20;;;9.32;;
69305;SDS011;56427;51.580;4.656;2023-04-19T04:02:48;16.95;;;10.48;;
69305;SDS011;56427;51.580;4.656;2023-04-19T04:05:19;15.90;;;10.10;;
69305;SDS011;56427;51.580;4.656;2023-04-19T04:10:37;17.00;;;11.15;;
69305;SDS011;56427;51.580;4.656;2023-04-19T04:13:05;14.07;;;9.00;;
69305;SDS011;56427;51.580;4.656;2023-04-19T04:15:51;14.82;;;9.93;;
69305;SDS011;56427;51.580;4.656;2023-04-19T04:18:57;18.33;;;10.02;;
69305;SDS011;56427;51.580;4.656;2023-04-19T04:21:26;19.30;;;11.55;;
69305;SDS011;56427;51.580;4.656;2023-04-19T04:24:06;16.95;;;10.43;;
69305;SDS011;56427;51.580;4.656;2023-04-19T04:26:35;17.50;;;10.30;;
69305;SDS011;56427;51.580;4.656;2023-04-19T04:29:06;16.63;;;10.10;;
69305;SDS011;56427;51.580;4.656;2023-04-19T04:31:51;17.00;;;10.43;;
69305;SDS011;56427;51.580;4.656;2023-04-19T04:34:50;18.05;;;10.40;;
69305;SDS011;56427;51.580;4.656;2023-04-19T04:37:27;16.60;;;11.18;;
69305;SDS011;56427;51.580;4.656;2023-04-19T04:43:00;17.50;;;10.98;;
69305;SDS011;56427;51.580;4.656;2023-04-19T04:45:40;17.35;;;10.90;;
69305;SDS011;56427;51.580;4.656;2023-04-19T04:48:34;16.00;;;10.25;;
69305;SDS011;56427;51.580;4.656;2023-04-19T04:51:26;17.00;;;11.35;;
69305;SDS011;56427;51.580;4.656;2023-04-19T04:54:02;16.92;;;10.00;;
69305;SDS011;56427;51.580;4.656;2023-04-19T04:56:31;15.55;;;10.40;;
69305;SDS011;56427;51.580;4.656;2023-04-19T04:59:05;15.70;;;9.85;;
69305;SDS011;56427;51.580;4.656;2023-04-19T05:01:38;16.73;;;10.27;;
69305;SDS011;56427;51.580;4.656;2023-04-19T05:04:05;17.00;;;9.52;;
69305;SDS011;56427;51.580;4.656;2023-04-19T05:06:36;16.40;;;9.73;;
69305;SDS011;56427;51.580;4.656;2023-04-19T05:09:10;14.85;;;9.80;;
69305;SDS011;56427;51.580;4.656;2023-04-19T05:11:41;26.00;;;9.57;;
69305;SDS011;56427;51.580;4.656;2023-04-19T05:14:31;17.75;;;9.38;;
69305;SDS011;56427;51.580;4.656;2023-04-19T05:17:39;15.25;;;9.27;;
69305;SDS011;56427;51.580;4.656;2023-04-19T05:20:22;14.38;;;8.77;;
69305;SDS011;56427;51.580;4.656;2023-04-19T05:22:56;15.05;;;7.78;;
69305;SDS011;56427;51.580;4.656;2023-04-19T05:25:27;14.20;;;7.15;;
69305;SDS011;56427;51.580;4.656;2023-04-19T05:28:36;12.90;;;7.72;;
69305;SDS011;56427;51.580;4.656;2023-04-19T05:31:07;11.63;;;7.03;;
69305;SDS011;56427;51.580;4.656;2023-04-19T05:33:40;10.63;;;6.85;;
69305;SDS011;56427;51.580;4.656;2023-04-19T05:36:29;12.82;;;7.75;;
69305;SDS011;56427;51.580;4.656;2023-04-19T05:39:05;12.68;;;7.20;;
69305;SDS011;56427;51.580;4.656;2023-04-19T05:41:35;12.38;;;6.63;;
69305;SDS011;56427;51.580;4.656;2023-04-19T05:44:06;11.98;;;6.68;;
69305;SDS011;56427;51.580;4.656;2023-04-19T05:46:45;11.25;;;7.15;;
69305;SDS011;56427;51.580;4.656;2023-04-19T05:49:34;22.00;;;7.65;;
69305;SDS011;56427;51.580;4.656;2023-04-19T05:52:09;10.68;;;6.55;;
69305;SDS011;56427;51.580;4.656;2023-04-19T05:54:35;14.73;;;6.88;;
69305;SDS011;56427;51.580;4.656;2023-04-19T05:57:08;8.00;;;5.60;;
69305;SDS011;56427;51.580;4.656;2023-04-19T05:59:40;11.88;;;6.70;;
69305;SDS011;56427;51.580;4.656;2023-04-19T06:02:06;10.27;;;7.03;;
69305;SDS011;56427;51.580;4.656;2023-04-19T06:04:55;12.63;;;7.10;;
69305;SDS011;56427;51.580;4.656;2023-04-19T06:08:02;11.50;;;6.65;;
69305;SDS011;56427;51.580;4.656;2023-04-19T06:11:08;9.88;;;6.50;;
69305;SDS011;56427;51.580;4.656;2023-04-19T06:14:04;10.83;;;6.37;;
69305;SDS011;56427;51.580;4.656;2023-04-19T06:16:39;11.82;;;7.30;;
69305;SDS011;56427;51.580;4.656;2023-04-19T06:19:20;10.77;;;6.55;;
69305;SDS011;56427;51.580;4.656;2023-04-19T06:22:26;13.18;;;6.90;;
69305;SDS011;56427;51.580;4.656;2023-04-19T06:24:59;8.02;;;5.25;;
69305;SDS011;56427;51.580;4.656;2023-04-19T06:27:42;12.90;;;6.37;;
69305;SDS011;56427;51.580;4.656;2023-04-19T06:30:19;9.88;;;6.13;;
69305;SDS011;56427;51.580;4.656;2023-04-19T06:32:50;9.35;;;5.60;;
69305;SDS011;56427;51.580;4.656;2023-04-19T06:35:17;11.55;;;6.35;;
69305;SDS011;56427;51.580;4.656;2023-04-19T06:37:45;8.63;;;5.77;;
69305;SDS011;56427;51.580;4.656;2023-04-19T06:40:20;12.13;;;6.80;;
69305;SDS011;56427;51.580;4.656;2023-04-19T06:43:08;11.45;;;6.15;;
69305;SDS011;56427;51.580;4.656;2023-04-19T06:46:02;12.43;;;6.10;;
69305;SDS011;56427;51.580;4.656;2023-04-19T06:48:38;9.75;;;6.50;;
69305;SDS011;56427;51.580;4.656;2023-04-19T06:51:04;9.80;;;5.80;;
69305;SDS011;56427;51.580;4.656;2023-04-19T06:53:30;7.28;;;5.00;;
69305;SDS011;56427;51.580;4.656;2023-04-19T06:56:04;8.18;;;5.68;;
69305;SDS011;56427;51.580;4.656;2023-04-19T06:58:37;10.30;;;5.50;;
69305;SDS011;56427;51.580;4.656;2023-04-19T07:01:30;8.20;;;5.43;;
69305;SDS011;56427;51.580;4.656;2023-04-19T07:04:06;9.27;;;5.25;;
69305;SDS011;56427;51.580;4.656;2023-04-19T07:06:35;15.68;;;5.95;;
69305;SDS011;56427;51.580;4.656;2023-04-19T07:09:08;9.27;;;5.70;;
69305;SDS011;56427;51.580;4.656;2023-04-19T07:11:44;9.35;;;5.28;;
69305;SDS011;56427;51.580;4.656;2023-04-19T07:14:15;8.57;;;4.77;;
69305;SDS011;56427;51.580;4.656;2023-04-19T07:16:47;9.88;;;5.97;;
69305;SDS011;56427;51.580;4.656;2023-04-19T07:19:22;8.50;;;4.93;;
69305;SDS011;56427;51.580;4.656;2023-04-19T07:21:59;9.55;;;5.47;;
69305;SDS011;56427;51.580;4.656;2023-04-19T07:24:45;8.52;;;5.32;;
69305;SDS011;56427;51.580;4.656;2023-04-19T07:27:37;8.97;;;5.20;;
69305;SDS011;56427;51.580;4.656;2023-04-19T07:30:24;8.73;;;5.75;;
69305;SDS011;56427;51.580;4.656;2023-04-19T07:32:52;7.10;;;4.97;;
69305;SDS011;56427;51.580;4.656;2023-04-19T07:35:17;11.10;;;5.33;;
69305;SDS011;56427;51.580;4.656;2023-04-19T07:38:06;8.98;;;5.40;;
69305;SDS011;56427;51.580;4.656;2023-04-19T07:40:37;9.95;;;5.50;;
69305;SDS011;56427;51.580;4.656;2023-04-19T07:43:16;11.05;;;4.90;;
69305;SDS011;56427;51.580;4.656;2023-04-19T07:45:49;8.20;;;5.65;;
69305;SDS011;56427;51.580;4.656;2023-04-19T07:48:18;7.83;;;4.97;;
69305;SDS011;56427;51.580;4.656;2023-04-19T07:50:53;7.95;;;5.40;;
69305;SDS011;56427;51.580;4.656;2023-04-19T07:56:13;8.43;;;5.53;;
69305;SDS011;56427;51.580;4.656;2023-04-19T07:58:55;10.18;;;5.25;;
69305;SDS011;56427;51.580;4.656;2023-04-19T08:01:37;10.25;;;5.35;;
69305;SDS011;56427;51.580;4.656;2023-04-19T08:04:19;10.13;;;5.63;;
69305;SDS011;56427;51.580;4.656;2023-04-19T08:07:18;12.13;;;5.45;;
69305;SDS011;56427;51.580;4.656;2023-04-19T08:09:58;11.43;;;5.70;;
69305;SDS011;56427;51.580;4.656;2023-04-19T08:12:26;12.85;;;5.70;;
69305;SDS011;56427;51.580;4.656;2023-04-19T08:15:05;7.47;;;5.13;;
69305;SDS011;56427;51.580;4.656;2023-04-19T08:17:34;16.30;;;5.68;;
69305;SDS011;56427;51.580;4.656;2023-04-19T08:20:17;8.90;;;5.53;;
69305;SDS011;56427;51.580;4.656;2023-04-19T08:23:29;9.10;;;5.43;;
69305;SDS011;56427;51.580;4.656;2023-04-19T08:26:22;9.60;;;5.35;;
69305;SDS011;56427;51.580;4.656;2023-04-19T08:28:54;9.57;;;5.30;;
69305;SDS011;56427;51.580;4.656;2023-04-19T08:31:28;8.80;;;5.13;;
69305;SDS011;56427;51.580;4.656;2023-04-19T08:33:56;7.80;;;5.90;;
69305;SDS011;56427;51.580;4.656;2023-04-19T08:36:24;8.23;;;5.10;;
69305;SDS011;56427;51.580;4.656;2023-04-19T08:39:00;8.18;;;5.03;;
69305;SDS011;56427;51.580;4.656;2023-04-19T08:44:23;8.45;;;5.05;;
69305;SDS011;56427;51.580;4.656;2023-04-19T08:47:02;10.18;;;5.47;;
69305;SDS011;56427;51.580;4.656;2023-04-19T08:50:03;8.90;;;5.43;;
69305;SDS011;56427;51.580;4.656;2023-04-19T08:55:37;7.88;;;5.25;;
69305;SDS011;56427;51.580;4.656;2023-04-19T08:58:54;8.15;;;4.72;;
69305;SDS011;56427;51.580;4.656;2023-04-19T09:01:49;9.88;;;5.93;;
69305;SDS011;56427;51.580;4.656;2023-04-19T09:08:02;9.07;;;4.93;;
69305;SDS011;56427;51.580;4.656;2023-04-19T09:11:09;7.88;;;5.65;;
69305;SDS011;56427;51.580;4.656;2023-04-19T09:13:45;10.17;;;5.80;;
69305;SDS011;56427;51.580;4.656;2023-04-19T09:16:34;8.40;;;5.28;;
69305;SDS011;56427;51.580;4.656;2023-04-19T09:19:22;8.82;;;5.22;;
69305;SDS011;56427;51.580;4.656;2023-04-19T09:21:53;10.02;;;5.47;;
69305;SDS011;56427;51.580;4.656;2023-04-19T09:24:39;8.68;;;5.80;;
69305;SDS011;56427;51.580;4.656;2023-04-19T09:27:28;8.80;;;5.07;;
69305;SDS011;56427;51.580;4.656;2023-04-19T09:29:56;7.75;;;5.10;;
69305;SDS011;56427;51.580;4.656;2023-04-19T09:32:47;10.10;;;4.45;;
69305;SDS011;56427;51.580;4.656;2023-04-19T09:35:15;6.60;;;4.38;;
69305;SDS011;56427;51.580;4.656;2023-04-19T09:40:49;8.25;;;5.15;;
69305;SDS011;56427;51.580;4.656;2023-04-19T09:43:34;10.75;;;5.05;;
69305;SDS011;56427;51.580;4.656;2023-04-19T09:46:46;9.73;;;5.40;;
69305;SDS011;56427;51.580;4.656;2023-04-19T09:49:16;10.70;;;5.23;;
69305;SDS011;56427;51.580;4.656;2023-04-19T09:51:57;7.20;;;4.60;;
69305;SDS011;56427;51.580;4.656;2023-04-19T09:58:29;6.18;;;4.22;;
69305;SDS011;56427;51.580;4.656;2023-04-19T10:11:36;5.85;;;3.92;;
69305;SDS011;56427;51.580;4.656;2023-04-19T10:31:13;5.55;;;3.63;;
69305;SDS011;56427;51.580;4.656;2023-04-19T10:33:39;6.07;;;3.63;;
69305;SDS011;56427;51.580;4.656;2023-04-19T10:36:09;5.60;;;3.17;;
69305;SDS011;56427;51.580;4.656;2023-04-19T10:41:03;9.03;;;3.73;;
69305;SDS011;56427;51.580;4.656;2023-04-19T10:43:35;6.28;;;3.40;;
69305;SDS011;56427;51.580;4.656;2023-04-19T10:46:12;7.65;;;3.30;;
69305;SDS011;56427;51.580;4.656;2023-04-19T10:48:57;5.10;;;3.47;;
69305;SDS011;56427;51.580;4.656;2023-04-19T10:51:46;5.18;;;3.00;;
69305;SDS011;56427;51.580;4.656;2023-04-19T10:59:29;4.97;;;2.97;;
69305;SDS011;56427;51.580;4.656;2023-04-19T11:02:02;8.57;;;2.70;;
69305;SDS011;56427;51.580;4.656;2023-04-19T11:09:23;7.53;;;2.80;;
69305;SDS011;56427;51.580;4.656;2023-04-19T11:11:51;4.80;;;2.90;;
69305;SDS011;56427;51.580;4.656;2023-04-19T11:14:17;5.80;;;2.60;;
69305;SDS011;56427;51.580;4.656;2023-04-19T11:16:45;4.87;;;3.00;;
69305;SDS011;56427;51.580;4.656;2023-04-19T11:19:14;5.35;;;2.60;;
69305;SDS011;56427;51.580;4.656;2023-04-19T11:21:46;10.17;;;2.40;;
69305;SDS011;56427;51.580;4.656;2023-04-19T11:24:12;5.97;;;2.90;;
69305;SDS011;56427;51.580;4.656;2023-04-19T11:26:41;9.07;;;2.60;;
69305;SDS011;56427;51.580;4.656;2023-04-19T11:29:08;8.32;;;2.45;;
69305;SDS011;56427;51.580;4.656;2023-04-19T11:31:34;4.70;;;2.30;;
69305;SDS011;56427;51.580;4.656;2023-04-19T11:34:01;3.73;;;1.90;;
69305;SDS011;56427;51.580;4.656;2023-04-19T11:36:27;5.63;;;2.30;;
69305;SDS011;56427;51.580;4.656;2023-04-19T11:38:52;3.30;;;2.13;;
69305;SDS011;56427;51.580;4.656;2023-04-19T11:41:18;5.20;;;2.10;;
69305;SDS011;56427;51.580;4.656;2023-04-19T11:43:43;5.77;;;1.73;;
69305;SDS011;56427;51.580;4.656;2023-04-19T11:46:11;4.15;;;1.88;;
69305;SDS011;56427;51.580;4.656;2023-04-19T11:48:37;7.88;;;2.00;;
69305;SDS011;56427;51.580;4.656;2023-04-19T11:51:04;14.75;;;3.15;;
69305;SDS011;56427;51.580;4.656;2023-04-19T11:53:30;5.83;;;2.27;;
69305;SDS011;56427;51.580;4.656;2023-04-19T11:55:57;3.80;;;2.13;;
69305;SDS011;56427;51.580;4.656;2023-04-19T11:58:44;7.22;;;2.50;;
69305;SDS011;56427;51.580;4.656;2023-04-19T12:01:14;7.60;;;2.08;;
69305;SDS011;56427;51.580;4.656;2023-04-19T12:03:45;5.30;;;2.53;;
69305;SDS011;56427;51.580;4.656;2023-04-19T12:06:16;6.97;;;2.30;;
69305;SDS011;56427;51.580;4.656;2023-04-19T12:08:44;9.18;;;1.88;;
69305;SDS011;56427;51.580;4.656;2023-04-19T12:11:11;16.95;;;2.80;;
69305;SDS011;56427;51.580;4.656;2023-04-19T12:13:37;3.22;;;1.95;;
69305;SDS011;56427;51.580;4.656;2023-04-19T12:16:05;6.57;;;2.50;;
69305;SDS011;56427;51.580;4.656;2023-04-19T12:18:46;4.37;;;2.03;;
69305;SDS011;56427;51.580;4.656;2023-04-19T12:21:26;5.28;;;2.33;;
69305;SDS011;56427;51.580;4.656;2023-04-19T12:23:56;7.05;;;2.22;;
69305;SDS011;56427;51.580;4.656;2023-04-19T12:26:23;5.68;;;2.05;;
69305;SDS011;56427;51.580;4.656;2023-04-19T12:28:52;3.45;;;2.22;;
69305;SDS011;56427;51.580;4.656;2023-04-19T12:31:21;7.57;;;2.10;;
69305;SDS011;56427;51.580;4.656;2023-04-19T12:33:47;3.92;;;2.00;;
69305;SDS011;56427;51.580;4.656;2023-04-19T12:36:12;5.95;;;2.08;;
69305;SDS011;56427;51.580;4.656;2023-04-19T12:38:38;3.50;;;2.23;;
69305;SDS011;56427;51.580;4.656;2023-04-19T12:41:03;4.80;;;1.93;;
69305;SDS011;56427;51.580;4.656;2023-04-19T12:43:30;4.30;;;2.00;;
69305;SDS011;56427;51.580;4.656;2023-04-19T12:45:56;4.80;;;1.90;;
69305;SDS011;56427;51.580;4.656;2023-04-19T12:48:25;9.93;;;2.40;;
69305;SDS011;56427;51.580;4.656;2023-04-19T12:50:51;6.15;;;2.40;;
69305;SDS011;56427;51.580;4.656;2023-04-19T12:53:17;5.53;;;2.20;;
69305;SDS011;56427;51.580;4.656;2023-04-19T12:55:43;4.35;;;2.40;;
69305;SDS011;56427;51.580;4.656;2023-04-19T12:58:13;8.10;;;2.30;;
69305;SDS011;56427;51.580;4.656;2023-04-19T13:00:39;5.43;;;2.10;;
69305;SDS011;56427;51.580;4.656;2023-04-19T13:03:05;5.50;;;2.30;;
69305;SDS011;56427;51.580;4.656;2023-04-19T13:05:30;4.78;;;2.00;;
69305;SDS011;56427;51.580;4.656;2023-04-19T13:07:56;6.47;;;2.10;;
69305;SDS011;56427;51.580;4.656;2023-04-19T13:10:21;4.13;;;2.23;;
69305;SDS011;56427;51.580;4.656;2023-04-19T13:12:47;5.72;;;2.30;;
69305;SDS011;56427;51.580;4.656;2023-04-19T13:15:12;5.60;;;2.13;;
69305;SDS011;56427;51.580;4.656;2023-04-19T13:17:37;6.03;;;2.40;;
69305;SDS011;56427;51.580;4.656;2023-04-19T13:20:03;6.27;;;2.17;;
69305;SDS011;56427;51.580;4.656;2023-04-19T13:22:30;4.50;;;2.08;;
69305;SDS011;56427;51.580;4.656;2023-04-19T13:24:56;5.57;;;2.42;;
69305;SDS011;56427;51.580;4.656;2023-04-19T13:27:21;7.00;;;2.20;;
69305;SDS011;56427;51.580;4.656;2023-04-19T13:29:47;4.93;;;2.37;;
69305;SDS011;56427;51.580;4.656;2023-04-19T13:32:12;3.77;;;2.30;;
69305;SDS011;56427;51.580;4.656;2023-04-19T13:34:38;8.13;;;2.90;;
69305;SDS011;56427;51.580;4.656;2023-04-19T13:37:06;8.13;;;2.50;;
69305;SDS011;56427;51.580;4.656;2023-04-19T13:39:33;6.95;;;2.30;;
69305;SDS011;56427;51.580;4.656;2023-04-19T13:41:58;6.22;;;2.67;;
69305;SDS011;56427;51.580;4.656;2023-04-19T13:44:26;7.38;;;2.00;;
69305;SDS011;56427;51.580;4.656;2023-04-19T13:46:51;8.57;;;2.87;;
69305;SDS011;56427;51.580;4.656;2023-04-19T13:49:17;7.78;;;2.10;;
69305;SDS011;56427;51.580;4.656;2023-04-19T13:51:42;5.07;;;2.20;;
69305;SDS011;56427;51.580;4.656;2023-04-19T13:54:08;8.10;;;2.20;;
69305;SDS011;56427;51.580;4.656;2023-04-19T13:56:33;7.87;;;2.20;;
69305;SDS011;56427;51.580;4.656;2023-04-19T13:58:59;13.83;;;2.60;;
69305;SDS011;56427;51.580;4.656;2023-04-19T14:01:24;4.67;;;2.10;;
69305;SDS011;56427;51.580;4.656;2023-04-19T14:03:49;5.67;;;2.50;;
69305;SDS011;56427;51.580;4.656;2023-04-19T14:06:15;3.93;;;2.10;;
69305;SDS011;56427;51.580;4.656;2023-04-19T14:08:41;4.55;;;2.35;;
69305;SDS011;56427;51.580;4.656;2023-04-19T14:11:06;9.93;;;2.20;;
69305;SDS011;56427;51.580;4.656;2023-04-19T14:13:31;8.23;;;1.90;;
69305;SDS011;56427;51.580;4.656;2023-04-19T14:15:57;18.23;;;2.50;;
69305;SDS011;56427;51.580;4.656;2023-04-19T14:18:22;10.73;;;2.53;;
69305;SDS011;56427;51.580;4.656;2023-04-19T14:20:48;4.57;;;2.13;;
69305;SDS011;56427;51.580;4.656;2023-04-19T14:23:13;4.55;;;2.03;;
69305;SDS011;56427;51.580;4.656;2023-04-19T14:25:38;5.53;;;2.20;;
69305;SDS011;56427;51.580;4.656;2023-04-19T14:28:04;6.27;;;1.97;;
69305;SDS011;56427;51.580;4.656;2023-04-19T14:30:29;4.43;;;2.30;;
69305;SDS011;56427;51.580;4.656;2023-04-19T14:32:55;4.73;;;2.20;;
69305;SDS011;56427;51.580;4.656;2023-04-19T14:35:20;4.30;;;2.13;;
69305;SDS011;56427;51.580;4.656;2023-04-19T14:37:45;4.93;;;2.30;;
69305;SDS011;56427;51.580;4.656;2023-04-19T14:40:11;4.90;;;2.00;;
69305;SDS011;56427;51.580;4.656;2023-04-19T14:42:36;4.30;;;2.10;;
69305;SDS011;56427;51.580;4.656;2023-04-19T14:45:02;4.57;;;2.10;;
69305;SDS011;56427;51.580;4.656;2023-04-19T14:47:27;7.63;;;2.70;;
69305;SDS011;56427;51.580;4.656;2023-04-19T14:49:53;5.83;;;2.07;;
69305;SDS011;56427;51.580;4.656;2023-04-19T14:52:18;4.60;;;2.30;;
69305;SDS011;56427;51.580;4.656;2023-04-19T14:54:44;3.55;;;2.63;;
69305;SDS011;56427;51.580;4.656;2023-04-19T14:57:10;4.33;;;2.37;;
69305;SDS011;56427;51.580;4.656;2023-04-19T14:59:36;11.77;;;2.67;;
69305;SDS011;56427;51.580;4.656;2023-04-19T15:02:01;7.13;;;2.30;;
69305;SDS011;56427;51.580;4.656;2023-04-19T15:04:26;6.07;;;2.80;;
69305;SDS011;56427;51.580;4.656;2023-04-19T15:06:52;6.07;;;2.63;;
69305;SDS011;56427;51.580;4.656;2023-04-19T15:09:17;3.60;;;2.22;;
69305;SDS011;56427;51.580;4.656;2023-04-19T15:11:43;4.87;;;2.77;;
69305;SDS011;56427;51.580;4.656;2023-04-19T15:14:08;8.90;;;2.97;;
69305;SDS011;56427;51.580;4.656;2023-04-19T15:16:36;4.27;;;2.23;;
69305;SDS011;56427;51.580;4.656;2023-04-19T15:19:02;8.18;;;2.78;;
69305;SDS011;56427;51.580;4.656;2023-04-19T15:21:31;4.43;;;2.80;;
69305;SDS011;56427;51.580;4.656;2023-04-19T15:23:56;5.90;;;2.60;;
69305;SDS011;56427;51.580;4.656;2023-04-19T15:26:21;4.30;;;2.70;;
69305;SDS011;56427;51.580;4.656;2023-04-19T15:28:48;7.35;;;2.97;;
69305;SDS011;56427;51.580;4.656;2023-04-19T15:31:14;5.03;;;2.80;;
69305;SDS011;56427;51.580;4.656;2023-04-19T15:33:40;6.15;;;3.25;;
69305;SDS011;56427;51.580;4.656;2023-04-19T15:36:05;4.77;;;2.67;;
69305;SDS011;56427;51.580;4.656;2023-04-19T15:38:31;6.97;;;3.17;;
69305;SDS011;56427;51.580;4.656;2023-04-19T15:40:57;6.18;;;2.47;;
69305;SDS011;56427;51.580;4.656;2023-04-19T15:43:23;5.13;;;2.70;;
69305;SDS011;56427;51.580;4.656;2023-04-19T15:45:49;5.20;;;2.50;;
69305;SDS011;56427;51.580;4.656;2023-04-19T15:48:14;4.70;;;2.37;;
69305;SDS011;56427;51.580;4.656;2023-04-19T15:50:40;5.40;;;2.73;;
69305;SDS011;56427;51.580;4.656;2023-04-19T15:53:06;4.97;;;2.40;;
69305;SDS011;56427;51.580;4.656;2023-04-19T15:55:32;6.20;;;2.67;;
69305;SDS011;56427;51.580;4.656;2023-04-19T15:57:58;4.07;;;2.17;;
69305;SDS011;56427;51.580;4.656;2023-04-19T16:00:24;5.03;;;2.55;;
69305;SDS011;56427;51.580;4.656;2023-04-19T16:02:50;3.65;;;2.63;;
69305;SDS011;56427;51.580;4.656;2023-04-19T16:05:16;3.93;;;2.23;;
69305;SDS011;56427;51.580;4.656;2023-04-19T16:07:41;13.47;;;3.30;;
69305;SDS011;56427;51.580;4.656;2023-04-19T16:10:10;4.88;;;2.70;;
69305;SDS011;56427;51.580;4.656;2023-04-19T16:12:36;3.58;;;2.17;;
69305;SDS011;56427;51.580;4.656;2023-04-19T16:15:04;3.73;;;2.27;;
69305;SDS011;56427;51.580;4.656;2023-04-19T16:17:30;5.53;;;2.72;;
69305;SDS011;56427;51.580;4.656;2023-04-19T16:19:56;3.95;;;2.50;;
69305;SDS011;56427;51.580;4.656;2023-04-19T16:22:22;4.30;;;2.40;;
69305;SDS011;56427;51.580;4.656;2023-04-19T16:24:48;6.20;;;2.50;;
69305;SDS011;56427;51.580;4.656;2023-04-19T16:27:14;4.50;;;2.10;;
69305;SDS011;56427;51.580;4.656;2023-04-19T16:29:39;4.20;;;2.50;;
69305;SDS011;56427;51.580;4.656;2023-04-19T16:32:04;6.60;;;2.73;;
69305;SDS011;56427;51.580;4.656;2023-04-19T16:34:30;4.03;;;2.27;;
69305;SDS011;56427;51.580;4.656;2023-04-19T16:36:56;4.57;;;2.47;;
69305;SDS011;56427;51.580;4.656;2023-04-19T16:39:21;5.63;;;2.30;;
69305;SDS011;56427;51.580;4.656;2023-04-19T16:41:47;6.43;;;2.80;;
69305;SDS011;56427;51.580;4.656;2023-04-19T16:44:12;7.13;;;2.57;;
69305;SDS011;56427;51.580;4.656;2023-04-19T16:46:37;3.43;;;1.90;;
69305;SDS011;56427;51.580;4.656;2023-04-19T16:49:03;3.57;;;2.17;;